sensor_id;sensor_type;location;lat;lon;timestamp;temperature;humidity
32502;DHT22;18952;52.516;13.460;2023-09-18T00:00:57;19.80;99.90
32502;DHT22;18952;52.516;13.460;2023-09-18T00:03:24;19.70;99.90
32502;DHT22;18952;52.516;13.460;2023-09-18T00:05:52;19.70;99.90
32502;DHT22;18952;52.516;13.460;2023-09-18T00:08:20;19.70;99.90
32502;DHT22;18952;52.516;13.460;2023-09-18T00:10:49;19.60;99.90
32502;DHT22;18952;52.516;13.460;2023-09-18T00:13:17;19.60;99.90
32502;DHT22;18952;52.516;13.460;2023-09-18T00:15:44;19.60;99.90
32502;DHT22;18952;52.516;13.460;2023-09-18T00:18:12;19.60;99.90
32502;DHT22;18952;52.516;13.460;2023-09-18T00:20:39;19.60;99.90
32502;DHT22;18952;52.516;13.460;2023-09-18T00:23:09;19.60;99.90
32502;DHT22;18952;52.516;13.460;2023-09-18T00:25:37;19.60;99.90
32502;DHT22;18952;52.516;13.460;2023-09-18T00:28:04;19.50;99.90
32502;DHT22;18952;52.516;13.460;2023-09-18T00:30:31;19.50;99.90
32502;DHT22;18952;52.516;13.460;2023-09-18T00:32:57;19.50;99.90
32502;DHT22;18952;52.516;13.460;2023-09-18T00:35:24;19.50;99.90
32502;DHT22;18952;52.516;13.460;2023-09-18T00:37:51;19.50;99.90
32502;DHT22;18952;52.516;13.460;2023-09-18T00:40:19;19.40;99.90
32502;DHT22;18952;52.516;13.460;2023-09-18T00:42:45;19.40;99.90
32502;DHT22;18952;52.516;13.460;2023-09-18T00:45:12;19.40;99.90
32502;DHT22;18952;52.516;13.460;2023-09-18T00:47:39;19.50;99.90
32502;DHT22;18952;52.516;13.460;2023-09-18T00:50:08;19.40;99.90
32502;DHT22;18952;52.516;13.460;2023-09-18T00:52:37;19.30;99.90
32502;DHT22;18952;52.516;13.460;2023-09-18T00:55:06;19.30;99.90
32502;DHT22;18952;52.516;13.460;2023-09-18T00:57:33;19.30;99.90
32502;DHT22;18952;52.516;13.460;2023-09-18T01:00:02;19.30;99.90
32502;DHT22;18952;52.516;13.460;2023-09-18T01:02:29;19.30;99.90
32502;DHT22;18952;52.516;13.460;2023-09-18T01:04:56;19.30;99.90
32502;DHT22;18952;52.516;13.460;2023-09-18T01:07:24;19.20;99.90
32502;DHT22;18952;52.516;13.460;2023-09-18T01:09:52;19.20;99.90
32502;DHT22;18952;52.516;13.460;2023-09-18T01:12:26;19.20;99.90
32502;DHT22;18952;52.516;13.460;2023-09-18T01:15:22;19.20;99.90
32502;DHT22;18952;52.516;13.460;2023-09-18T01:17:49;19.20;99.90
32502;DHT22;18952;52.516;13.460;2023-09-18T01:20:16;19.10;99.90
32502;DHT22;18952;52.516;13.460;2023-09-18T01:22:43;19.10;99.90
32502;DHT22;18952;52.516;13.460;2023-09-18T01:25:10;19.10;99.90
32502;DHT22;18952;52.516;13.460;2023-09-18T01:27:36;19.10;99.90
32502;DHT22;18952;52.516;13.460;2023-09-18T01:30:03;19.00;99.90
32502;DHT22;18952;52.516;13.460;2023-09-18T01:32:32;19.00;99.90
32502;DHT22;18952;52.516;13.460;2023-09-18T01:35:00;18.90;99.90
32502;DHT22;18952;52.516;13.460;2023-09-18T01:37:30;18.90;99.90
32502;DHT22;18952;52.516;13.460;2023-09-18T01:39:57;18.90;99.90
32502;DHT22;18952;52.516;13.460;2023-09-18T01:42:25;18.90;99.90
32502;DHT22;18952;52.516;13.460;2023-09-18T01:44:53;18.90;99.90
32502;DHT22;18952;52.516;13.460;2023-09-18T01:47:22;18.90;99.90
32502;DHT22;18952;52.516;13.460;2023-09-18T01:49:49;18.90;99.90
32502;DHT22;18952;52.516;13.460;2023-09-18T01:52:16;18.80;99.90
32502;DHT22;18952;52.516;13.460;2023-09-18T01:54:43;18.90;99.90
32502;DHT22;18952;52.516;13.460;2023-09-18T01:57:10;18.80;99.90
32502;DHT22;18952;52.516;13.460;2023-09-18T01:59:37;18.80;99.90
32502;DHT22;18952;52.516;13.460;2023-09-18T02:02:05;18.80;99.90
32502;DHT22;18952;52.516;13.460;2023-09-18T02:04:32;18.80;99.90
32502;DHT22;18952;52.516;13.460;2023-09-18T02:07:19;18.80;99.90
32502;DHT22;18952;52.516;13.460;2023-09-18T02:09:46;18.70;99.90
32502;DHT22;18952;52.516;13.460;2023-09-18T02:12:13;18.70;99.90
32502;DHT22;18952;52.516;13.460;2023-09-18T02:14:39;18.70;99.90
32502;DHT22;18952;52.516;13.460;2023-09-18T02:17:06;18.70;99.90
32502;DHT22;18952;52.516;13.460;2023-09-18T02:19:33;18.60;99.90
32502;DHT22;18952;52.516;13.460;2023-09-18T02:21:59;18.60;99.90
32502;DHT22;18952;52.516;13.460;2023-09-18T02:24:26;18.50;99.90
32502;DHT22;18952;52.516;13.460;2023-09-18T02:26:53;18.50;99.90
32502;DHT22;18952;52.516;13.460;2023-09-18T02:29:20;18.50;99.90
32502;DHT22;18952;52.516;13.460;2023-09-18T02:31:46;18.50;99.90
32502;DHT22;18952;52.516;13.460;2023-09-18T02:34:13;18.50;99.90
32502;DHT22;18952;52.516;13.460;2023-09-18T02:36:40;18.50;99.90
32502;DHT22;18952;52.516;13.460;2023-09-18T02:39:06;18.40;99.90
32502;DHT22;18952;52.516;13.460;2023-09-18T02:41:33;18.40;99.90
32502;DHT22;18952;52.516;13.460;2023-09-18T02:44:00;18.40;99.90
32502;DHT22;18952;52.516;13.460;2023-09-18T02:46:27;18.40;99.90
32502;DHT22;18952;52.516;13.460;2023-09-18T02:48:53;18.40;99.90
32502;DHT22;18952;52.516;13.460;2023-09-18T02:51:21;18.40;99.90
32502;DHT22;18952;52.516;13.460;2023-09-18T02:53:48;18.40;99.90
32502;DHT22;18952;52.516;13.460;2023-09-18T02:56:15;18.30;99.90
32502;DHT22;18952;52.516;13.460;2023-09-18T02:58:42;18.30;99.90
32502;DHT22;18952;52.516;13.460;2023-09-18T03:01:09;18.30;99.90
32502;DHT22;18952;52.516;13.460;2023-09-18T03:03:35;18.30;99.90
32502;DHT22;18952;52.516;13.460;2023-09-18T03:06:03;18.30;99.90
32502;DHT22;18952;52.516;13.460;2023-09-18T03:08:31;18.30;99.90
32502;DHT22;18952;52.516;13.460;2023-09-18T03:10:57;18.20;99.90
32502;DHT22;18952;52.516;13.460;2023-09-18T03:13:27;18.20;99.90
32502;DHT22;18952;52.516;13.460;2023-09-18T03:15:54;18.20;99.90
32502;DHT22;18952;52.516;13.460;2023-09-18T03:18:21;18.20;99.90
32502;DHT22;18952;52.516;13.460;2023-09-18T03:20:48;18.20;99.90
32502;DHT22;18952;52.516;13.460;2023-09-18T03:23:14;18.20;99.90
32502;DHT22;18952;52.516;13.460;2023-09-18T03:25:41;18.20;99.90
32502;DHT22;18952;52.516;13.460;2023-09-18T03:28:16;18.20;99.90
32502;DHT22;18952;52.516;13.460;2023-09-18T03:30:43;18.10;99.90
32502;DHT22;18952;52.516;13.460;2023-09-18T03:33:10;18.10;99.90
32502;DHT22;18952;52.516;13.460;2023-09-18T03:35:50;18.10;99.90
32502;DHT22;18952;52.516;13.460;2023-09-18T03:38:18;18.00;99.90
32502;DHT22;18952;52.516;13.460;2023-09-18T03:40:45;18.00;99.90
32502;DHT22;18952;52.516;13.460;2023-09-18T03:43:12;18.00;99.90
32502;DHT22;18952;52.516;13.460;2023-09-18T03:45:39;18.00;99.90
32502;DHT22;18952;52.516;13.460;2023-09-18T03:48:09;18.00;99.90
32502;DHT22;18952;52.516;13.460;2023-09-18T03:50:36;18.00;99.90
32502;DHT22;18952;52.516;13.460;2023-09-18T03:53:03;18.00;99.90
32502;DHT22;18952;52.516;13.460;2023-09-18T03:55:29;17.90;99.90
32502;DHT22;18952;52.516;13.460;2023-09-18T03:57:56;17.90;99.90
32502;DHT22;18952;52.516;13.460;2023-09-18T04:00:23;17.90;99.90
32502;DHT22;18952;52.516;13.460;2023-09-18T04:02:50;17.90;99.90
32502;DHT22;18952;52.516;13.460;2023-09-18T04:05:17;17.90;99.90
32502;DHT22;18952;52.516;13.460;2023-09-18T04:07:44;17.90;99.90
32502;DHT22;18952;52.516;13.460;2023-09-18T04:10:11;17.90;99.90
32502;DHT22;18952;52.516;13.460;2023-09-18T04:12:42;17.90;99.90
32502;DHT22;18952;52.516;13.460;2023-09-18T04:15:09;17.80;99.90
32502;DHT22;18952;52.516;13.460;2023-09-18T04:17:35;17.80;99.90
32502;DHT22;18952;52.516;13.460;2023-09-18T04:20:02;17.80;99.90
32502;DHT22;18952;52.516;13.460;2023-09-18T04:22:29;17.80;99.90
32502;DHT22;18952;52.516;13.460;2023-09-18T04:24:56;17.80;99.90
32502;DHT22;18952;52.516;13.460;2023-09-18T04:27:23;17.80;99.90
32502;DHT22;18952;52.516;13.460;2023-09-18T04:29:50;17.80;99.90
32502;DHT22;18952;52.516;13.460;2023-09-18T04:32:16;17.80;99.90
32502;DHT22;18952;52.516;13.460;2023-09-18T04:34:43;17.80;99.90
32502;DHT22;18952;52.516;13.460;2023-09-18T04:37:10;17.80;99.90
32502;DHT22;18952;52.516;13.460;2023-09-18T04:39:37;17.80;99.90
32502;DHT22;18952;52.516;13.460;2023-09-18T04:42:03;17.70;99.90
32502;DHT22;18952;52.516;13.460;2023-09-18T04:44:30;17.70;99.90
32502;DHT22;18952;52.516;13.460;2023-09-18T04:46:57;17.70;99.90
32502;DHT22;18952;52.516;13.460;2023-09-18T04:49:24;17.70;99.90
32502;DHT22;18952;52.516;13.460;2023-09-18T04:51:51;17.70;99.90
32502;DHT22;18952;52.516;13.460;2023-09-18T04:54:19;17.70;99.90
32502;DHT22;18952;52.516;13.460;2023-09-18T04:56:46;17.70;99.90
32502;DHT22;18952;52.516;13.460;2023-09-18T04:59:13;17.70;99.90
32502;DHT22;18952;52.516;13.460;2023-09-18T05:01:39;17.70;99.90
32502;DHT22;18952;52.516;13.460;2023-09-18T05:04:06;17.70;99.90
32502;DHT22;18952;52.516;13.460;2023-09-18T05:06:33;17.70;99.90
32502;DHT22;18952;52.516;13.460;2023-09-18T05:09:00;17.70;99.90
32502;DHT22;18952;52.516;13.460;2023-09-18T05:11:26;17.80;99.90
32502;DHT22;18952;52.516;13.460;2023-09-18T05:13:53;17.70;99.90
32502;DHT22;18952;52.516;13.460;2023-09-18T05:16:20;17.80;99.90
32502;DHT22;18952;52.516;13.460;2023-09-18T05:18:46;17.80;99.90
32502;DHT22;18952;52.516;13.460;2023-09-18T05:21:13;17.80;99.90
32502;DHT22;18952;52.516;13.460;2023-09-18T05:23:40;17.80;99.90
32502;DHT22;18952;52.516;13.460;2023-09-18T05:26:07;17.80;99.90
32502;DHT22;18952;52.516;13.460;2023-09-18T05:28:34;17.90;99.90
32502;DHT22;18952;52.516;13.460;2023-09-18T05:31:00;17.90;99.90
32502;DHT22;18952;52.516;13.460;2023-09-18T05:33:27;17.90;99.90
32502;DHT22;18952;52.516;13.460;2023-09-18T05:35:54;17.90;99.90
32502;DHT22;18952;52.516;13.460;2023-09-18T05:38:21;17.90;99.90
32502;DHT22;18952;52.516;13.460;2023-09-18T05:40:48;18.00;99.90
32502;DHT22;18952;52.516;13.460;2023-09-18T05:43:14;18.00;99.90
32502;DHT22;18952;52.516;13.460;2023-09-18T05:45:41;18.00;99.90
32502;DHT22;18952;52.516;13.460;2023-09-18T05:48:08;18.00;99.90
32502;DHT22;18952;52.516;13.460;2023-09-18T05:50:35;18.10;99.90
32502;DHT22;18952;52.516;13.460;2023-09-18T05:53:02;18.10;99.90
32502;DHT22;18952;52.516;13.460;2023-09-18T05:55:30;18.10;99.90
32502;DHT22;18952;52.516;13.460;2023-09-18T05:57:58;18.20;99.90
32502;DHT22;18952;52.516;13.460;2023-09-18T06:00:25;18.20;99.90
32502;DHT22;18952;52.516;13.460;2023-09-18T06:02:52;18.30;99.90
32502;DHT22;18952;52.516;13.460;2023-09-18T06:05:19;18.40;99.90
32502;DHT22;18952;52.516;13.460;2023-09-18T06:07:46;18.50;99.90
32502;DHT22;18952;52.516;13.460;2023-09-18T06:10:16;18.50;99.90
32502;DHT22;18952;52.516;13.460;2023-09-18T06:12:43;18.50;99.90
32502;DHT22;18952;52.516;13.460;2023-09-18T06:15:11;18.50;99.90
32502;DHT22;18952;52.516;13.460;2023-09-18T06:17:39;18.60;99.90
32502;DHT22;18952;52.516;13.460;2023-09-18T06:20:07;18.60;99.90
32502;DHT22;18952;52.516;13.460;2023-09-18T06:22:35;18.70;99.90
32502;DHT22;18952;52.516;13.460;2023-09-18T06:25:02;18.70;99.90
32502;DHT22;18952;52.516;13.460;2023-09-18T06:27:29;18.70;99.90
32502;DHT22;18952;52.516;13.460;2023-09-18T06:29:55;18.80;99.90
32502;DHT22;18952;52.516;13.460;2023-09-18T06:32:23;18.80;99.90
32502;DHT22;18952;52.516;13.460;2023-09-18T06:34:50;18.80;99.90
32502;DHT22;18952;52.516;13.460;2023-09-18T06:37:16;18.80;99.90
32502;DHT22;18952;52.516;13.460;2023-09-18T06:39:43;18.90;99.90
32502;DHT22;18952;52.516;13.460;2023-09-18T06:42:10;18.90;99.90
32502;DHT22;18952;52.516;13.460;2023-09-18T06:44:37;18.90;99.90
32502;DHT22;18952;52.516;13.460;2023-09-18T06:47:04;18.90;99.90
32502;DHT22;18952;52.516;13.460;2023-09-18T06:49:31;19.00;99.90
32502;DHT22;18952;52.516;13.460;2023-09-18T06:51:58;19.00;99.90
32502;DHT22;18952;52.516;13.460;2023-09-18T06:54:25;19.00;99.90
32502;DHT22;18952;52.516;13.460;2023-09-18T06:56:51;19.10;99.90
32502;DHT22;18952;52.516;13.460;2023-09-18T06:59:18;19.10;99.90
32502;DHT22;18952;52.516;13.460;2023-09-18T07:01:45;19.10;99.90
32502;DHT22;18952;52.516;13.460;2023-09-18T07:04:12;19.20;99.90
32502;DHT22;18952;52.516;13.460;2023-09-18T07:06:40;19.20;99.90
32502;DHT22;18952;52.516;13.460;2023-09-18T07:09:06;19.20;99.90
32502;DHT22;18952;52.516;13.460;2023-09-18T07:11:34;19.20;99.90
32502;DHT22;18952;52.516;13.460;2023-09-18T07:14:01;19.30;99.90
32502;DHT22;18952;52.516;13.460;2023-09-18T07:16:27;19.30;99.90
32502;DHT22;18952;52.516;13.460;2023-09-18T07:18:54;19.40;99.90
32502;DHT22;18952;52.516;13.460;2023-09-18T07:21:21;19.40;99.90
32502;DHT22;18952;52.516;13.460;2023-09-18T07:23:48;19.40;99.90
32502;DHT22;18952;52.516;13.460;2023-09-18T07:26:15;19.50;99.90
32502;DHT22;18952;52.516;13.460;2023-09-18T07:28:41;19.50;99.90
32502;DHT22;18952;52.516;13.460;2023-09-18T07:31:08;19.50;99.90
32502;DHT22;18952;52.516;13.460;2023-09-18T07:33:35;19.50;99.90
32502;DHT22;18952;52.516;13.460;2023-09-18T07:36:02;19.60;99.90
32502;DHT22;18952;52.516;13.460;2023-09-18T07:38:29;19.60;99.90
32502;DHT22;18952;52.516;13.460;2023-09-18T07:40:56;19.70;99.90
32502;DHT22;18952;52.516;13.460;2023-09-18T07:43:26;19.70;99.90
32502;DHT22;18952;52.516;13.460;2023-09-18T07:45:53;19.80;99.90
32502;DHT22;18952;52.516;13.460;2023-09-18T07:48:21;19.90;99.90
32502;DHT22;18952;52.516;13.460;2023-09-18T07:50:48;19.90;99.90
32502;DHT22;18952;52.516;13.460;2023-09-18T07:53:17;20.00;99.90
32502;DHT22;18952;52.516;13.460;2023-09-18T07:55:44;20.00;99.90
32502;DHT22;18952;52.516;13.460;2023-09-18T07:58:11;20.10;99.90
32502;DHT22;18952;52.516;13.460;2023-09-18T08:00:38;20.10;99.90
32502;DHT22;18952;52.516;13.460;2023-09-18T08:03:05;20.10;99.90
32502;DHT22;18952;52.516;13.460;2023-09-18T08:05:32;20.20;99.90
32502;DHT22;18952;52.516;13.460;2023-09-18T08:07:58;20.30;99.90
32502;DHT22;18952;52.516;13.460;2023-09-18T08:10:25;20.30;99.90
32502;DHT22;18952;52.516;13.460;2023-09-18T08:12:53;20.40;99.90
32502;DHT22;18952;52.516;13.460;2023-09-18T08:15:20;20.40;99.90
32502;DHT22;18952;52.516;13.460;2023-09-18T08:17:47;20.50;99.90
32502;DHT22;18952;52.516;13.460;2023-09-18T08:20:16;20.60;99.90
32502;DHT22;18952;52.516;13.460;2023-09-18T08:22:43;20.60;99.90
32502;DHT22;18952;52.516;13.460;2023-09-18T08:25:11;20.70;99.90
32502;DHT22;18952;52.516;13.460;2023-09-18T08:27:41;20.70;99.90
32502;DHT22;18952;52.516;13.460;2023-09-18T08:30:08;20.80;99.90
32502;DHT22;18952;52.516;13.460;2023-09-18T08:32:36;20.90;99.90
32502;DHT22;18952;52.516;13.460;2023-09-18T08:35:04;21.00;99.90
32502;DHT22;18952;52.516;13.460;2023-09-18T08:37:31;21.00;99.90
32502;DHT22;18952;52.516;13.460;2023-09-18T08:39:58;21.10;99.90
32502;DHT22;18952;52.516;13.460;2023-09-18T08:42:25;21.20;99.90
32502;DHT22;18952;52.516;13.460;2023-09-18T08:44:54;21.30;99.90
32502;DHT22;18952;52.516;13.460;2023-09-18T08:47:23;21.40;99.90
32502;DHT22;18952;52.516;13.460;2023-09-18T08:49:51;21.50;99.90
32502;DHT22;18952;52.516;13.460;2023-09-18T08:52:19;21.60;99.90
32502;DHT22;18952;52.516;13.460;2023-09-18T08:54:47;21.70;99.90
32502;DHT22;18952;52.516;13.460;2023-09-18T08:57:13;21.80;99.90
32502;DHT22;18952;52.516;13.460;2023-09-18T08:59:41;21.90;99.90
32502;DHT22;18952;52.516;13.460;2023-09-18T09:02:08;22.00;99.90
32502;DHT22;18952;52.516;13.460;2023-09-18T09:04:35;22.20;99.90
32502;DHT22;18952;52.516;13.460;2023-09-18T09:07:02;22.20;99.90
32502;DHT22;18952;52.516;13.460;2023-09-18T09:09:30;22.40;99.90
32502;DHT22;18952;52.516;13.460;2023-09-18T09:11:57;22.50;99.90
32502;DHT22;18952;52.516;13.460;2023-09-18T09:14:23;22.60;99.90
32502;DHT22;18952;52.516;13.460;2023-09-18T09:16:51;22.70;99.90
32502;DHT22;18952;52.516;13.460;2023-09-18T09:19:18;22.80;99.90
32502;DHT22;18952;52.516;13.460;2023-09-18T09:21:53;22.90;99.90
32502;DHT22;18952;52.516;13.460;2023-09-18T09:24:42;23.10;99.90
32502;DHT22;18952;52.516;13.460;2023-09-18T09:27:10;23.20;99.90
32502;DHT22;18952;52.516;13.460;2023-09-18T09:29:37;23.30;99.90
32502;DHT22;18952;52.516;13.460;2023-09-18T09:32:17;23.40;99.90
32502;DHT22;18952;52.516;13.460;2023-09-18T09:34:45;23.50;99.90
32502;DHT22;18952;52.516;13.460;2023-09-18T09:37:12;23.60;99.90
32502;DHT22;18952;52.516;13.460;2023-09-18T09:39:51;23.70;99.90
32502;DHT22;18952;52.516;13.460;2023-09-18T09:42:20;23.90;99.90
32502;DHT22;18952;52.516;13.460;2023-09-18T09:44:47;23.90;99.90
32502;DHT22;18952;52.516;13.460;2023-09-18T09:47:14;24.00;99.90
32502;DHT22;18952;52.516;13.460;2023-09-18T09:49:47;24.20;99.90
32502;DHT22;18952;52.516;13.460;2023-09-18T09:52:18;24.20;99.90
32502;DHT22;18952;52.516;13.460;2023-09-18T09:54:45;24.30;99.90
32502;DHT22;18952;52.516;13.460;2023-09-18T09:57:12;24.40;99.90
32502;DHT22;18952;52.516;13.460;2023-09-18T09:59:38;24.50;99.90
32502;DHT22;18952;52.516;13.460;2023-09-18T10:02:07;24.50;99.90
32502;DHT22;18952;52.516;13.460;2023-09-18T10:04:35;24.60;99.90
32502;DHT22;18952;52.516;13.460;2023-09-18T10:07:07;24.60;99.90
32502;DHT22;18952;52.516;13.460;2023-09-18T10:09:36;24.80;99.90
32502;DHT22;18952;52.516;13.460;2023-09-18T10:12:11;24.80;99.90
32502;DHT22;18952;52.516;13.460;2023-09-18T10:14:38;24.90;99.90
32502;DHT22;18952;52.516;13.460;2023-09-18T10:17:25;25.00;99.90
32502;DHT22;18952;52.516;13.460;2023-09-18T10:20:01;25.10;99.90
32502;DHT22;18952;52.516;13.460;2023-09-18T10:22:30;25.10;99.90
32502;DHT22;18952;52.516;13.460;2023-09-18T10:25:07;25.20;99.90
32502;DHT22;18952;52.516;13.460;2023-09-18T10:27:37;25.20;99.90
32502;DHT22;18952;52.516;13.460;2023-09-18T10:30:06;25.30;99.90
32502;DHT22;18952;52.516;13.460;2023-09-18T10:32:33;25.30;99.90
32502;DHT22;18952;52.516;13.460;2023-09-18T10:35:01;25.30;99.90
32502;DHT22;18952;52.516;13.460;2023-09-18T10:37:30;25.40;99.90
32502;DHT22;18952;52.516;13.460;2023-09-18T10:39:57;25.50;99.90
32502;DHT22;18952;52.516;13.460;2023-09-18T10:42:27;25.50;99.90
32502;DHT22;18952;52.516;13.460;2023-09-18T10:44:55;25.50;99.90
32502;DHT22;18952;52.516;13.460;2023-09-18T10:47:22;25.50;99.90
32502;DHT22;18952;52.516;13.460;2023-09-18T10:49:49;25.50;99.90
32502;DHT22;18952;52.516;13.460;2023-09-18T10:52:16;25.40;99.90
32502;DHT22;18952;52.516;13.460;2023-09-18T10:54:44;25.40;99.90
32502;DHT22;18952;52.516;13.460;2023-09-18T10:57:11;25.30;99.90
32502;DHT22;18952;52.516;13.460;2023-09-18T10:59:45;25.20;99.90
32502;DHT22;18952;52.516;13.460;2023-09-18T11:02:16;25.20;99.90
32502;DHT22;18952;52.516;13.460;2023-09-18T11:04:44;25.20;99.90
32502;DHT22;18952;52.516;13.460;2023-09-18T11:07:21;25.30;99.90
32502;DHT22;18952;52.516;13.460;2023-09-18T11:09:48;25.40;99.90
32502;DHT22;18952;52.516;13.460;2023-09-18T11:12:16;25.40;99.90
32502;DHT22;18952;52.516;13.460;2023-09-18T11:17:36;25.40;99.90
32502;DHT22;18952;52.516;13.460;2023-09-18T11:20:10;25.30;99.90
32502;DHT22;18952;52.516;13.460;2023-09-18T11:22:49;25.30;99.90
32502;DHT22;18952;52.516;13.460;2023-09-18T11:25:35;25.30;99.90
32502;DHT22;18952;52.516;13.460;2023-09-18T11:28:03;25.30;99.90
32502;DHT22;18952;52.516;13.460;2023-09-18T11:30:30;25.20;99.90
32502;DHT22;18952;52.516;13.460;2023-09-18T11:32:57;25.10;99.90
32502;DHT22;18952;52.516;13.460;2023-09-18T11:35:25;25.10;99.90
32502;DHT22;18952;52.516;13.460;2023-09-18T11:38:08;25.10;99.90
32502;DHT22;18952;52.516;13.460;2023-09-18T11:40:37;25.20;99.90
32502;DHT22;18952;52.516;13.460;2023-09-18T11:43:20;25.20;99.90
32502;DHT22;18952;52.516;13.460;2023-09-18T11:45:49;25.10;99.90
32502;DHT22;18952;52.516;13.460;2023-09-18T11:48:16;25.10;99.90
32502;DHT22;18952;52.516;13.460;2023-09-18T11:50:44;25.10;99.90
32502;DHT22;18952;52.516;13.460;2023-09-18T11:53:15;25.10;99.90
32502;DHT22;18952;52.516;13.460;2023-09-18T11:55:42;25.10;99.90
32502;DHT22;18952;52.516;13.460;2023-09-18T11:58:09;25.00;99.90
32502;DHT22;18952;52.516;13.460;2023-09-18T12:00:36;25.00;99.90
32502;DHT22;18952;52.516;13.460;2023-09-18T12:05:43;24.90;99.90
32502;DHT22;18952;52.516;13.460;2023-09-18T12:08:11;24.90;99.90
32502;DHT22;18952;52.516;13.460;2023-09-18T12:10:39;24.90;99.90
32502;DHT22;18952;52.516;13.460;2023-09-18T12:13:06;24.90;99.90
32502;DHT22;18952;52.516;13.460;2023-09-18T12:15:33;25.00;99.90
32502;DHT22;18952;52.516;13.460;2023-09-18T12:18:10;25.10;99.90
32502;DHT22;18952;52.516;13.460;2023-09-18T12:20:44;25.20;99.90
32502;DHT22;18952;52.516;13.460;2023-09-18T12:23:11;25.30;99.90
32502;DHT22;18952;52.516;13.460;2023-09-18T12:25:39;25.40;99.90
32502;DHT22;18952;52.516;13.460;2023-09-18T12:28:07;25.50;99.90
32502;DHT22;18952;52.516;13.460;2023-09-18T12:30:34;25.60;99.90
32502;DHT22;18952;52.516;13.460;2023-09-18T12:33:01;25.80;99.90
32502;DHT22;18952;52.516;13.460;2023-09-18T12:35:28;25.90;99.90
32502;DHT22;18952;52.516;13.460;2023-09-18T12:37:57;26.00;99.90
32502;DHT22;18952;52.516;13.460;2023-09-18T12:40:29;25.90;99.90
32502;DHT22;18952;52.516;13.460;2023-09-18T12:42:56;25.80;99.90
32502;DHT22;18952;52.516;13.460;2023-09-18T12:45:24;25.80;99.90
32502;DHT22;18952;52.516;13.460;2023-09-18T12:47:53;25.80;99.90
32502;DHT22;18952;52.516;13.460;2023-09-18T12:50:20;25.70;99.90
32502;DHT22;18952;52.516;13.460;2023-09-18T12:52:47;25.70;99.90
32502;DHT22;18952;52.516;13.460;2023-09-18T12:55:21;25.60;99.90
32502;DHT22;18952;52.516;13.460;2023-09-18T12:57:48;25.40;99.90
32502;DHT22;18952;52.516;13.460;2023-09-18T13:00:16;25.30;99.90
32502;DHT22;18952;52.516;13.460;2023-09-18T13:02:44;25.30;99.90
32502;DHT22;18952;52.516;13.460;2023-09-18T13:05:12;25.30;99.90
32502;DHT22;18952;52.516;13.460;2023-09-18T13:07:44;25.20;99.90
32502;DHT22;18952;52.516;13.460;2023-09-18T13:10:10;25.10;99.90
32502;DHT22;18952;52.516;13.460;2023-09-18T13:12:49;25.00;99.90
32502;DHT22;18952;52.516;13.460;2023-09-18T13:15:30;24.90;99.90
32502;DHT22;18952;52.516;13.460;2023-09-18T13:17:58;24.80;99.90
32502;DHT22;18952;52.516;13.460;2023-09-18T13:20:27;24.70;99.90
32502;DHT22;18952;52.516;13.460;2023-09-18T13:22:56;24.70;99.90
32502;DHT22;18952;52.516;13.460;2023-09-18T13:25:29;24.60;99.90
32502;DHT22;18952;52.516;13.460;2023-09-18T13:27:56;24.50;99.90
32502;DHT22;18952;52.516;13.460;2023-09-18T13:30:23;24.50;99.90
32502;DHT22;18952;52.516;13.460;2023-09-18T13:32:50;24.40;99.90
32502;DHT22;18952;52.516;13.460;2023-09-18T13:35:18;24.40;99.90
32502;DHT22;18952;52.516;13.460;2023-09-18T13:37:46;24.40;99.90
32502;DHT22;18952;52.516;13.460;2023-09-18T13:40:12;24.40;99.90
32502;DHT22;18952;52.516;13.460;2023-09-18T13:42:39;24.30;99.90
32502;DHT22;18952;52.516;13.460;2023-09-18T13:45:07;24.30;99.90
32502;DHT22;18952;52.516;13.460;2023-09-18T13:47:34;24.20;99.90
32502;DHT22;18952;52.516;13.460;2023-09-18T13:50:04;24.00;99.90
32502;DHT22;18952;52.516;13.460;2023-09-18T13:52:33;23.90;99.90
32502;DHT22;18952;52.516;13.460;2023-09-18T13:55:02;23.90;99.90
32502;DHT22;18952;52.516;13.460;2023-09-18T13:57:28;23.80;99.90
32502;DHT22;18952;52.516;13.460;2023-09-18T13:59:55;23.90;99.90
32502;DHT22;18952;52.516;13.460;2023-09-18T14:02:22;24.00;99.90
32502;DHT22;18952;52.516;13.460;2023-09-18T14:04:49;24.00;99.90
32502;DHT22;18952;52.516;13.460;2023-09-18T14:07:16;24.00;99.90
32502;DHT22;18952;52.516;13.460;2023-09-18T14:09:42;24.00;99.90
32502;DHT22;18952;52.516;13.460;2023-09-18T14:12:09;24.00;99.90
32502;DHT22;18952;52.516;13.460;2023-09-18T14:14:36;24.00;99.90
32502;DHT22;18952;52.516;13.460;2023-09-18T14:17:03;24.00;99.90
32502;DHT22;18952;52.516;13.460;2023-09-18T14:19:30;24.10;99.90
32502;DHT22;18952;52.516;13.460;2023-09-18T14:21:57;24.20;99.90
32502;DHT22;18952;52.516;13.460;2023-09-18T14:24:24;24.20;99.90
32502;DHT22;18952;52.516;13.460;2023-09-18T14:26:53;24.20;99.90
32502;DHT22;18952;52.516;13.460;2023-09-18T14:29:21;24.20;99.90
32502;DHT22;18952;52.516;13.460;2023-09-18T14:31:48;24.20;99.90
32502;DHT22;18952;52.516;13.460;2023-09-18T14:34:16;24.10;99.90
32502;DHT22;18952;52.516;13.460;2023-09-18T14:36:42;24.10;99.90
32502;DHT22;18952;52.516;13.460;2023-09-18T14:39:15;24.10;99.90
32502;DHT22;18952;52.516;13.460;2023-09-18T14:41:42;24.00;99.90
32502;DHT22;18952;52.516;13.460;2023-09-18T14:44:09;23.90;99.90
32502;DHT22;18952;52.516;13.460;2023-09-18T14:46:37;23.80;99.90
32502;DHT22;18952;52.516;13.460;2023-09-18T14:49:05;23.70;99.90
32502;DHT22;18952;52.516;13.460;2023-09-18T14:51:32;23.60;99.90
32502;DHT22;18952;52.516;13.460;2023-09-18T14:54:00;23.50;99.90
32502;DHT22;18952;52.516;13.460;2023-09-18T14:56:27;23.40;99.90
32502;DHT22;18952;52.516;13.460;2023-09-18T14:58:54;23.40;99.90
32502;DHT22;18952;52.516;13.460;2023-09-18T15:01:22;23.40;99.90
32502;DHT22;18952;52.516;13.460;2023-09-18T15:03:49;23.30;99.90
32502;DHT22;18952;52.516;13.460;2023-09-18T15:06:16;23.30;99.90
32502;DHT22;18952;52.516;13.460;2023-09-18T15:08:43;23.30;99.90
32502;DHT22;18952;52.516;13.460;2023-09-18T15:11:10;23.30;99.90
32502;DHT22;18952;52.516;13.460;2023-09-18T15:13:37;23.40;99.90
32502;DHT22;18952;52.516;13.460;2023-09-18T15:16:05;23.40;99.90
32502;DHT22;18952;52.516;13.460;2023-09-18T15:18:32;23.40;99.90
32502;DHT22;18952;52.516;13.460;2023-09-18T15:20:59;23.50;99.90
32502;DHT22;18952;52.516;13.460;2023-09-18T15:23:26;23.50;99.90
32502;DHT22;18952;52.516;13.460;2023-09-18T15:25:53;23.50;99.90